Time;durP1;ratioP1;P1;durP2;ratioP2;P2;SDS_P1;SDS_P2;PMS_P1;PMS_P2;Temp;Humidity;BMP_temperature;BMP_pressure;BME280_temperature;BME280_humidity;BME280_pressure;Samples;Min_cycle;Max_cycle;Signal;HPM_P1;HPM_P2
2021/10/27 00:01:08;;;;;;;46.88;27.85;;;;;;;;;;4989912;28;20046;-82
2021/10/27 00:03:34;;;;;;;50.85;27.35;;;;;;;;;;5007242;28;20046;-80
2021/10/27 00:06:00;;;;;;;45.20;26.13;;;;;;;;;;5006712;28;20549;-80
2021/10/27 00:08:26;;;;;;;56.92;27.38;;;;;;;;;;5001542;28;20094;-80
2021/10/27 00:10:52;;;;;;;52.17;27.20;;;;;;;;;;5007551;28;20050;-80
2021/10/27 00:13:18;;;;;;;51.70;27.95;;;;;;;;;;5009146;28;20136;-80
2021/10/27 00:15:45;;;;;;;47.40;26.27;;;;;;;;;;5006705;28;20046;-76
2021/10/27 00:18:12;;;;;;;50.92;27.83;;;;;;;;;;4989923;28;20128;-80
2021/10/27 00:20:38;;;;;;;45.90;27.25;;;;;;;;;;4992390;28;20045;-80
2021/10/27 00:23:04;;;;;;;55.50;27.67;;;;;;;;;;4989346;28;20156;-80
2021/10/27 00:25:30;;;;;;;49.10;25.73;;;;;;;;;;4990849;28;20045;-79
2021/10/27 00:27:56;;;;;;;61.35;26.15;;;;;;;;;;5016716;28;20141;-80
2021/10/27 00:30:23;;;;;;;53.58;25.90;;;;;;;;;;5007522;28;20045;-80
2021/10/27 00:32:50;;;;;;;53.58;27.00;;;;;;;;;;5006618;28;20132;-76
2021/10/27 00:35:16;;;;;;;46.63;25.63;;;;;;;;;;4993149;28;20128;-79
2021/10/27 00:37:42;;;;;;;41.42;25.25;;;;;;;;;;5007804;28;20044;-79
2021/10/27 00:40:08;;;;;;;54.03;26.48;;;;;;;;;;5002722;28;20057;-80
2021/10/27 00:42:34;;;;;;;38.97;24.48;;;;;;;;;;5010612;28;20468;-79
2021/10/27 00:45:01;;;;;;;48.17;25.83;;;;;;;;;;5005642;28;20050;-80
2021/10/27 00:47:27;;;;;;;45.95;26.15;;;;;;;;;;5003879;28;20393;-80
2021/10/27 00:49:53;;;;;;;46.95;24.63;;;;;;;;;;5004778;28;20073;-77
2021/10/27 00:52:19;;;;;;;48.58;26.38;;;;;;;;;;5003259;28;20050;-79
2021/10/27 00:54:47;;;;;;;45.35;25.05;;;;;;;;;;5007318;28;20083;-80
2021/10/27 00:57:14;;;;;;;45.63;24.70;;;;;;;;;;5012507;28;20038;-79
2021/10/27 00:59:41;;;;;;;47.33;25.10;;;;;;;;;;5007156;28;20046;-79
2021/10/27 01:02:08;;;;;;;46.20;25.40;;;;;;;;;;5009204;28;20053;-80
2021/10/27 01:04:34;;;;;;;47.72;24.67;;;;;;;;;;5009508;28;20485;-76
2021/10/27 01:07:00;;;;;;;44.17;23.98;;;;;;;;;;5002006;28;20050;-79
2021/10/27 01:09:26;;;;;;;45.03;25.67;;;;;;;;;;5007633;28;20057;-79
2021/10/27 01:11:52;;;;;;;38.15;24.08;;;;;;;;;;5003762;28;20046;-77
2021/10/27 01:14:19;;;;;;;41.85;21.85;;;;;;;;;;4988585;28;20034;-80
2021/10/27 01:16:48;;;;;;;39.17;23.23;;;;;;;;;;4989819;28;20548;-79
2021/10/27 01:19:15;;;;;;;40.38;21.25;;;;;;;;;;4995680;28;20142;-80
2021/10/27 01:21:41;;;;;;;42.20;22.45;;;;;;;;;;4986743;28;20056;-79
2021/10/27 01:24:07;;;;;;;44.08;22.45;;;;;;;;;;5009322;28;20394;-80
2021/10/27 01:26:34;;;;;;;39.20;22.63;;;;;;;;;;5017964;28;20048;-80
2021/10/27 01:29:00;;;;;;;36.85;22.58;;;;;;;;;;4995344;28;20049;-80
2021/10/27 01:31:27;;;;;;;39.22;21.20;;;;;;;;;;5007359;28;20121;-80
2021/10/27 01:33:53;;;;;;;42.28;20.73;;;;;;;;;;4981496;28;20053;-77
2021/10/27 01:36:20;;;;;;;37.92;20.77;;;;;;;;;;5005702;28;20077;-79
2021/10/27 01:38:47;;;;;;;35.03;19.13;;;;;;;;;;5011572;28;20076;-79
2021/10/27 01:41:14;;;;;;;37.63;18.95;;;;;;;;;;5010065;28;20034;-80
2021/10/27 01:43:54;;;;;;;49.70;19.20;;;;;;;;;;5011425;28;20069;-77
2021/10/27 01:46:30;;;;;;;39.30;18.17;;;;;;;;;;5005338;28;20038;-78
2021/10/27 01:49:00;;;;;;;38.53;17.23;;;;;;;;;;4984617;28;20041;-79
2021/10/27 01:51:27;;;;;;;40.30;16.73;;;;;;;;;;4986881;28;20057;-79
2021/10/27 01:53:53;;;;;;;30.27;16.17;;;;;;;;;;5001526;28;20044;-77
2021/10/27 01:56:20;;;;;;;40.05;15.50;;;;;;;;;;5000330;28;20049;-77
2021/10/27 01:58:46;;;;;;;30.38;13.73;;;;;;;;;;5004604;28;20042;-78
2021/10/27 02:01:13;;;;;;;35.13;13.63;;;;;;;;;;5015027;28;20058;-80
2021/10/27 02:03:39;;;;;;;37.53;15.05;;;;;;;;;;5012196;28;20081;-79
2021/10/27 02:06:05;;;;;;;39.00;14.52;;;;;;;;;;5008330;28;20041;-78
2021/10/27 02:08:31;;;;;;;29.77;13.73;;;;;;;;;;5010547;28;20120;-78
2021/10/27 02:10:57;;;;;;;48.63;14.73;;;;;;;;;;4999056;28;20540;-79
2021/10/27 02:13:23;;;;;;;36.42;14.05;;;;;;;;;;5002715;28;20124;-79
2021/10/27 02:15:50;;;;;;;41.17;15.05;;;;;;;;;;5009766;28;20056;-78
2021/10/27 02:18:16;;;;;;;44.30;15.43;;;;;;;;;;4987222;28;20069;-79
2021/10/27 02:20:42;;;;;;;40.78;16.50;;;;;;;;;;5009556;28;20104;-79
2021/10/27 02:23:08;;;;;;;37.53;15.15;;;;;;;;;;5010146;28;20053;-79
2021/10/27 02:25:34;;;;;;;35.65;16.58;;;;;;;;;;5002537;28;20042;-79
2021/10/27 02:28:00;;;;;;;45.58;17.77;;;;;;;;;;5003813;28;20042;-79
2021/10/27 02:30:26;;;;;;;39.92;15.90;;;;;;;;;;4987789;28;20072;-78
2021/10/27 02:32:52;;;;;;;40.42;17.33;;;;;;;;;;5006814;28;20541;-78
2021/10/27 02:35:18;;;;;;;44.03;17.65;;;;;;;;;;5004320;28;20607;-76
2021/10/27 02:37:44;;;;;;;39.35;16.02;;;;;;;;;;4987857;28;20038;-76
2021/10/27 02:40:11;;;;;;;40.28;16.40;;;;;;;;;;4988118;28;20111;-79
2021/10/27 02:42:38;;;;;;;35.80;16.92;;;;;;;;;;4990316;28;20057;-79
2021/10/27 02:45:05;;;;;;;34.72;16.48;;;;;;;;;;5003786;28;20053;-79
2021/10/27 02:47:31;;;;;;;35.30;16.60;;;;;;;;;;5013518;28;20053;-76
2021/10/27 02:49:57;;;;;;;33.17;16.20;;;;;;;;;;4999066;28;20539;-76
2021/10/27 02:52:23;;;;;;;36.03;16.15;;;;;;;;;;5000646;28;20101;-79
2021/10/27 02:54:50;;;;;;;32.88;15.05;;;;;;;;;;4993487;28;20061;-78
2021/10/27 02:57:16;;;;;;;39.13;15.50;;;;;;;;;;4987257;28;20074;-78
2021/10/27 02:59:42;;;;;;;40.40;15.65;;;;;;;;;;4986962;28;20053;-79
2021/10/27 03:02:08;;;;;;;33.15;15.55;;;;;;;;;;5000109;28;20068;-76
2021/10/27 03:04:34;;;;;;;36.97;16.38;;;;;;;;;;5042717;28;20045;-79
2021/10/27 03:07:00;;;;;;;32.38;15.45;;;;;;;;;;5007047;28;20391;-76
2021/10/27 03:09:26;;;;;;;39.90;15.27;;;;;;;;;;4992415;28;20064;-78
2021/10/27 03:11:53;;;;;;;33.08;14.50;;;;;;;;;;5008485;28;20042;-79
2021/10/27 03:14:19;;;;;;;35.95;14.20;;;;;;;;;;5007053;28;20045;-79
2021/10/27 03:16:45;;;;;;;28.83;12.77;;;;;;;;;;5010722;28;20042;-77
2021/10/27 03:19:11;;;;;;;32.35;13.32;;;;;;;;;;4987273;28;20486;-79
2021/10/27 03:21:37;;;;;;;30.90;12.15;;;;;;;;;;4990488;28;20140;-79
2021/10/27 03:24:04;;;;;;;30.52;10.63;;;;;;;;;;5008653;28;20056;-79
2021/10/27 03:26:30;;;;;;;31.35;11.60;;;;;;;;;;4997579;28;21878;-78
2021/10/27 03:28:56;;;;;;;26.92;9.95;;;;;;;;;;4973731;28;20059;-79
2021/10/27 03:31:23;;;;;;;28.75;9.18;;;;;;;;;;4985452;28;20045;-78
2021/10/27 03:33:49;;;;;;;31.05;10.73;;;;;;;;;;4976609;28;20054;-79
2021/10/27 03:36:15;;;;;;;27.95;8.65;;;;;;;;;;5010731;28;20377;-76
2021/10/27 03:38:41;;;;;;;27.98;8.80;;;;;;;;;;5009618;28;20048;-79
2021/10/27 03:41:08;;;;;;;27.38;8.13;;;;;;;;;;5022114;28;20256;-78
2021/10/27 03:43:34;;;;;;;22.55;7.57;;;;;;;;;;4995577;28;20064;-78
2021/10/27 03:46:00;;;;;;;19.65;6.70;;;;;;;;;;4973107;28;20050;-75
2021/10/27 03:48:26;;;;;;;23.67;6.43;;;;;;;;;;5016502;28;20081;-78
2021/10/27 03:50:52;;;;;;;30.45;6.43;;;;;;;;;;4996826;28;20121;-78
2021/10/27 03:53:19;;;;;;;19.20;5.30;;;;;;;;;;5009755;28;20421;-78
2021/10/27 03:55:45;;;;;;;20.30;5.43;;;;;;;;;;4985430;28;20050;-79
2021/10/27 03:58:11;;;;;;;21.45;5.13;;;;;;;;;;5008605;28;20045;-78
2021/10/27 04:00:39;;;;;;;23.52;5.60;;;;;;;;;;4999666;28;20124;-77
2021/10/27 04:03:05;;;;;;;27.23;5.25;;;;;;;;;;4998069;28;20104;-76
2021/10/27 04:05:31;;;;;;;23.05;5.63;;;;;;;;;;4984045;28;20058;-79
2021/10/27 04:07:58;;;;;;;25.52;6.03;;;;;;;;;;5015262;28;20062;-80
2021/10/27 04:10:24;;;;;;;22.15;5.60;;;;;;;;;;5000195;28;20042;-80
2021/10/27 04:12:50;;;;;;;19.55;5.50;;;;;;;;;;5005335;28;20120;-80
2021/10/27 04:15:16;;;;;;;21.65;4.70;;;;;;;;;;5001916;28;20141;-79
2021/10/27 04:17:42;;;;;;;19.55;5.45;;;;;;;;;;5008347;28;20089;-80
2021/10/27 04:20:10;;;;;;;26.73;5.63;;;;;;;;;;4988367;28;20494;-80
2021/10/27 04:22:37;;;;;;;22.13;5.18;;;;;;;;;;5008582;28;20073;-80
2021/10/27 04:25:04;;;;;;;20.92;5.07;;;;;;;;;;5009429;28;20129;-77
2021/10/27 04:27:30;;;;;;;26.83;4.82;;;;;;;;;;5006136;28;20042;-80
2021/10/27 04:29:57;;;;;;;28.75;6.30;;;;;;;;;;4973636;28;20058;-80
2021/10/27 04:32:23;;;;;;;23.83;5.53;;;;;;;;;;5004791;28;20153;-81
2021/10/27 04:34:50;;;;;;;23.98;5.55;;;;;;;;;;4997891;28;20045;-80
2021/10/27 04:37:16;;;;;;;20.55;4.72;;;;;;;;;;4990553;28;20046;-81
2021/10/27 04:39:42;;;;;;;21.95;4.70;;;;;;;;;;4997729;28;20045;-80
2021/10/27 04:42:08;;;;;;;26.70;5.00;;;;;;;;;;5008963;28;20054;-79
2021/10/27 04:44:34;;;;;;;26.67;5.38;;;;;;;;;;4986789;28;20042;-80
2021/10/27 04:47:03;;;;;;;30.73;5.50;;;;;;;;;;4989716;28;20397;-80
2021/10/27 04:49:30;;;;;;;27.33;4.85;;;;;;;;;;4999613;28;20045;-80
2021/10/27 04:51:56;;;;;;;29.88;4.88;;;;;;;;;;4996152;28;20049;-80
2021/10/27 04:54:22;;;;;;;25.10;5.22;;;;;;;;;;5003200;28;20049;-80
2021/10/27 04:56:48;;;;;;;25.50;4.50;;;;;;;;;;4999254;28;20073;-79
2021/10/27 04:59:15;;;;;;;24.05;5.40;;;;;;;;;;5020672;28;20627;-80
2021/10/27 05:01:43;;;;;;;29.88;4.90;;;;;;;;;;5003107;28;20046;-80
2021/10/27 05:04:10;;;;;;;29.63;5.22;;;;;;;;;;5004006;28;20080;-81
2021/10/27 05:06:36;;;;;;;23.60;5.13;;;;;;;;;;5007867;28;20147;-80
2021/10/27 05:09:02;;;;;;;27.23;5.45;;;;;;;;;;5004904;28;20409;-81
2021/10/27 05:11:28;;;;;;;22.77;5.20;;;;;;;;;;4985393;28;20050;-81
2021/10/27 05:13:55;;;;;;;30.75;5.13;;;;;;;;;;4994567;28;20046;-82
2021/10/27 05:16:22;;;;;;;20.20;5.22;;;;;;;;;;4985493;28;20078;-81
2021/10/27 05:18:48;;;;;;;22.70;5.18;;;;;;;;;;5010111;28;20050;-80
2021/10/27 05:21:14;;;;;;;26.10;5.13;;;;;;;;;;4989049;28;20041;-80
2021/10/27 05:23:40;;;;;;;23.75;5.15;;;;;;;;;;4992388;28;20045;-82
2021/10/27 05:26:06;;;;;;;20.90;4.95;;;;;;;;;;5009952;28;20389;-80
2021/10/27 05:28:32;;;;;;;40.03;5.65;;;;;;;;;;5007338;28;20068;-81
2021/10/27 05:30:58;;;;;;;27.02;5.72;;;;;;;;;;4991759;28;20050;-84
2021/10/27 05:33:24;;;;;;;29.80;5.38;;;;;;;;;;5003767;28;20128;-80
2021/10/27 05:35:51;;;;;;;31.17;5.93;;;;;;;;;;5007332;28;20497;-77
2021/10/27 05:38:17;;;;;;;27.40;5.95;;;;;;;;;;4989071;28;20053;-77
2021/10/27 05:40:44;;;;;;;28.55;5.55;;;;;;;;;;5008114;28;20465;-79
2021/10/27 05:43:13;;;;;;;24.52;5.00;;;;;;;;;;4998618;28;20046;-77
2021/10/27 05:45:40;;;;;;;25.60;5.72;;;;;;;;;;4995527;28;20056;-81
2021/10/27 05:48:08;;;;;;;27.63;5.80;;;;;;;;;;4997068;28;20359;-82
2021/10/27 05:50:38;;;;;;;30.02;6.20;;;;;;;;;;4993968;28;20054;-79
2021/10/27 05:55:49;;;;;;;27.75;6.15;;;;;;;;;;5004559;28;20057;-82
2021/10/27 05:58:16;;;;;;;24.27;6.18;;;;;;;;;;5008081;28;20049;-82
2021/10/27 06:00:43;;;;;;;22.55;6.97;;;;;;;;;;5011741;28;20046;-81
2021/10/27 06:03:09;;;;;;;28.02;6.13;;;;;;;;;;5010014;28;20045;-79
2021/10/27 06:05:36;;;;;;;29.08;7.40;;;;;;;;;;5000461;28;20083;-81
2021/10/27 06:08:02;;;;;;;29.38;7.25;;;;;;;;;;4985477;28;20482;-82
2021/10/27 06:10:29;;;;;;;27.58;7.28;;;;;;;;;;5001372;28;20489;-82
2021/10/27 06:13:00;;;;;;;29.42;7.75;;;;;;;;;;4994944;28;20041;-79
2021/10/27 06:15:26;;;;;;;22.25;6.43;;;;;;;;;;5013471;28;20096;-82
2021/10/27 06:17:53;;;;;;;21.48;7.68;;;;;;;;;;5012806;28;20049;-82
2021/10/27 06:20:19;;;;;;;29.65;8.35;;;;;;;;;;5011021;28;20046;-82
2021/10/27 06:22:46;;;;;;;25.27;7.35;;;;;;;;;;5012256;28;20076;-81
2021/10/27 06:25:12;;;;;;;26.15;6.22;;;;;;;;;;4993851;28;20054;-78
2021/10/27 06:27:41;;;;;;;29.25;6.95;;;;;;;;;;4988790;28;20077;-83
2021/10/27 06:30:11;;;;;;;27.60;7.75;;;;;;;;;;4977602;28;20551;-78
2021/10/27 06:35:20;;;;;;;26.65;8.32;;;;;;;;;;5002993;28;20053;-81
2021/10/27 06:46:11;;;;;;;24.85;9.48;;;;;;;;;;5008785;28;20508;-78
2021/10/27 06:48:37;;;;;;;31.35;11.48;;;;;;;;;;5008451;28;20125;-78
2021/10/27 06:51:03;;;;;;;35.67;11.35;;;;;;;;;;4994876;28;20049;-78
2021/10/27 06:53:30;;;;;;;29.00;11.60;;;;;;;;;;5007593;28;20520;-77
2021/10/27 06:55:57;;;;;;;28.45;11.68;;;;;;;;;;5011412;28;20041;-78
2021/10/27 06:58:24;;;;;;;28.45;11.88;;;;;;;;;;5005506;28;20453;-78
2021/10/27 07:00:53;;;;;;;32.42;12.35;;;;;;;;;;5008225;28;20046;-78
2021/10/27 07:16:38;;;;;;;27.75;11.45;;;;;;;;;;5010579;28;20060;-78
2021/10/27 07:19:04;;;;;;;27.02;10.60;;;;;;;;;;4999580;28;20078;-81
2021/10/27 07:21:31;;;;;;;26.92;11.23;;;;;;;;;;5014841;28;20044;-78
2021/10/27 07:23:57;;;;;;;25.05;11.98;;;;;;;;;;4990515;28;20553;-80
2021/10/27 07:26:25;;;;;;;24.88;10.90;;;;;;;;;;4993285;28;20045;-78
2021/10/27 07:28:53;;;;;;;29.42;12.52;;;;;;;;;;5007605;28;20046;-79
2021/10/27 07:31:20;;;;;;;26.00;12.43;;;;;;;;;;5004296;28;20053;-79
2021/10/27 07:34:31;;;;;;;27.73;12.75;;;;;;;;;;4993874;28;20049;-78
2021/10/27 07:41:52;;;;;;;31.25;13.70;;;;;;;;;;5009299;28;20556;-78
2021/10/27 07:44:19;;;;;;;25.45;12.98;;;;;;;;;;5014575;28;20041;-78
2021/10/27 07:46:46;;;;;;;27.77;14.70;;;;;;;;;;4996044;28;20431;-78
2021/10/27 07:49:13;;;;;;;20.98;13.27;;;;;;;;;;4991382;28;20046;-79
2021/10/27 07:51:39;;;;;;;27.67;14.88;;;;;;;;;;5018739;28;20398;-79
2021/10/27 07:54:05;;;;;;;29.58;16.08;;;;;;;;;;4981331;28;20051;-74
2021/10/27 07:56:32;;;;;;;25.02;14.98;;;;;;;;;;4976701;28;20053;-78
2021/10/27 07:59:00;;;;;;;22.45;14.52;;;;;;;;;;4987866;28;20048;-80
2021/10/27 08:01:27;;;;;;;28.88;13.68;;;;;;;;;;5006334;28;20183;-77
2021/10/27 08:03:53;;;;;;;31.13;14.85;;;;;;;;;;5009885;28;20454;-78
2021/10/27 08:06:19;;;;;;;25.83;14.00;;;;;;;;;;5010372;28;20393;-79
2021/10/27 08:08:45;;;;;;;28.55;15.75;;;;;;;;;;5004985;28;20417;-83
2021/10/27 08:11:11;;;;;;;29.35;16.35;;;;;;;;;;5008557;28;20045;-75
2021/10/27 08:13:38;;;;;;;28.55;16.30;;;;;;;;;;5008417;28;20048;-79
2021/10/27 08:16:04;;;;;;;33.42;16.70;;;;;;;;;;5007662;28;20080;-81
2021/10/27 08:18:30;;;;;;;28.88;16.88;;;;;;;;;;5008025;28;20096;-81
2021/10/27 08:20:56;;;;;;;27.42;17.85;;;;;;;;;;5006382;28;20501;-78
2021/10/27 08:23:27;;;;;;;25.42;17.95;;;;;;;;;;4993300;28;20121;-77
2021/10/27 08:25:57;;;;;;;35.97;18.80;;;;;;;;;;5009992;28;20132;-78
2021/10/27 08:28:35;;;;;;;32.47;19.10;;;;;;;;;;4989723;28;20050;-77
2021/10/27 08:31:09;;;;;;;29.63;17.40;;;;;;;;;;5010418;28;20049;-77
2021/10/27 08:33:46;;;;;;;30.80;18.88;;;;;;;;;;4994447;28;20057;-77
2021/10/27 08:36:12;;;;;;;29.40;17.38;;;;;;;;;;5011548;28;20115;-77
2021/10/27 08:38:38;;;;;;;25.67;16.30;;;;;;;;;;5009258;28;20056;-77
2021/10/27 08:41:04;;;;;;;25.75;17.33;;;;;;;;;;5010408;28;20084;-76
2021/10/27 08:43:31;;;;;;;29.35;15.18;;;;;;;;;;4989680;28;20043;-80
2021/10/27 08:45:57;;;;;;;23.13;14.45;;;;;;;;;;4991382;28;20046;-76
2021/10/27 08:48:25;;;;;;;24.00;14.00;;;;;;;;;;5013431;28;20049;-76
2021/10/27 08:50:52;;;;;;;22.88;14.60;;;;;;;;;;4998616;28;20049;-77
2021/10/27 08:53:21;;;;;;;20.58;13.73;;;;;;;;;;5008552;28;20437;-77
2021/10/27 08:55:49;;;;;;;23.25;13.15;;;;;;;;;;5006724;28;20448;-78
2021/10/27 08:58:24;;;;;;;24.63;12.82;;;;;;;;;;5008017;28;20153;-78
2021/10/27 09:01:05;;;;;;;23.23;13.68;;;;;;;;;;5018281;28;20049;-77
2021/10/27 09:03:46;;;;;;;22.40;13.73;;;;;;;;;;4979886;28;20053;-77
2021/10/27 09:09:22;;;;;;;21.23;13.70;;;;;;;;;;5003653;28;20054;-77
2021/10/27 09:39:48;;;;;;;20.15;10.63;;;;;;;;;;5008161;28;20054;-78
2021/10/27 10:05:13;;;;;;;19.48;8.30;;;;;;;;;;5014473;28;20509;-79
2021/10/27 10:07:40;;;;;;;17.60;7.63;;;;;;;;;;5010563;28;20061;-77
2021/10/27 10:10:08;;;;;;;16.77;7.70;;;;;;;;;;4994968;28;20049;-77
2021/10/27 10:12:51;;;;;;;15.50;7.25;;;;;;;;;;5013697;28;20081;-77
2021/10/27 10:15:24;;;;;;;14.98;7.07;;;;;;;;;;5009386;28;20062;-78
2021/10/27 10:17:51;;;;;;;13.80;6.05;;;;;;;;;;5011146;28;20386;-76
2021/10/27 10:20:18;;;;;;;13.45;6.10;;;;;;;;;;5009384;28;20366;-77
2021/10/27 10:22:44;;;;;;;15.45;5.47;;;;;;;;;;5027118;28;20097;-76
2021/10/27 10:25:21;;;;;;;15.32;5.82;;;;;;;;;;5019913;28;20099;-76
2021/10/27 10:27:48;;;;;;;11.30;5.30;;;;;;;;;;5017858;28;20046;-76
2021/10/27 10:30:37;;;;;;;10.65;5.60;;;;;;;;;;5006765;28;20113;-76
2021/10/27 10:33:05;;;;;;;14.13;5.50;;;;;;;;;;4993826;28;20042;-80
2021/10/27 10:36:09;;;;;;;12.35;5.20;;;;;;;;;;5005082;28;20057;-77
2021/10/27 11:03:22;;;;;;;;;;;;;;;;;;5005498;28;20880;-81
2021/10/27 11:26:27;;;;;;;10.80;3.25;;;;;;;;;;4984964;28;20057;-81
2021/10/27 11:37:36;;;;;;;8.50;3.03;;;;;;;;;;5010909;28;20115;-82
2021/10/27 11:40:14;;;;;;;9.23;3.13;;;;;;;;;;5004042;28;20128;-82
2021/10/27 11:42:50;;;;;;;8.70;3.05;;;;;;;;;;5005143;28;20047;-80
2021/10/27 11:45:24;;;;;;;9.23;2.70;;;;;;;;;;4988682;28;20053;-80
2021/10/27 11:47:54;;;;;;;8.75;3.13;;;;;;;;;;4986944;28;20125;-79
2021/10/27 11:50:21;;;;;;;12.98;3.63;;;;;;;;;;4984106;28;20073;-83
2021/10/27 11:52:52;;;;;;;10.38;3.20;;;;;;;;;;5003101;28;20037;-82
2021/10/27 11:55:18;;;;;;;11.18;3.10;;;;;;;;;;4988349;28;20069;-82
2021/10/27 11:57:46;;;;;;;11.75;3.17;;;;;;;;;;5010031;28;20191;-79
2021/10/27 12:00:25;;;;;;;11.85;2.97;;;;;;;;;;5023285;28;20548;-83
2021/10/27 12:03:06;;;;;;;13.80;3.17;;;;;;;;;;5010324;28;20056;-83
2021/10/27 12:08:59;;;;;;;10.97;2.83;;;;;;;;;;4989474;28;20062;-81
2021/10/27 12:11:31;;;;;;;8.88;2.75;;;;;;;;;;4998339;28;20041;-81
2021/10/27 12:14:15;;;;;;;9.73;2.75;;;;;;;;;;4990051;28;20103;-81
2021/10/27 12:19:13;;;;;;;9.82;2.22;;;;;;;;;;5002481;28;20434;-82
2021/10/27 12:21:46;;;;;;;7.70;2.58;;;;;;;;;;5016237;28;20052;-81
2021/10/27 12:24:15;;;;;;;10.57;2.57;;;;;;;;;;5008119;28;20049;-82
2021/10/27 12:26:48;;;;;;;9.65;2.33;;;;;;;;;;5004717;28;20120;-78
2021/10/27 12:29:26;;;;;;;11.13;2.35;;;;;;;;;;5009352;28;20049;-81
2021/10/27 12:32:11;;;;;;;10.07;2.40;;;;;;;;;;5009048;28;20211;-81
2021/10/27 12:34:47;;;;;;;7.22;3.35;;;;;;;;;;5006870;28;20577;-84
2021/10/27 12:37:28;;;;;;;12.13;2.75;;;;;;;;;;5016820;28;20095;-82
2021/10/27 12:40:09;;;;;;;7.45;2.72;;;;;;;;;;5000816;28;20041;-85
2021/10/27 12:42:35;;;;;;;10.68;2.55;;;;;;;;;;5006387;28;20050;-78
2021/10/27 12:45:01;;;;;;;14.35;3.67;;;;;;;;;;4975709;28;20046;-80
2021/10/27 12:47:29;;;;;;;10.38;2.65;;;;;;;;;;4992503;28;20049;-81
2021/10/27 12:50:09;;;;;;;11.98;2.30;;;;;;;;;;5030215;28;20053;-85
2021/10/27 12:52:38;;;;;;;10.52;2.60;;;;;;;;;;4990023;28;20037;-86
2021/10/27 12:55:18;;;;;;;6.60;2.17;;;;;;;;;;5014162;28;20437;-85
2021/10/27 12:57:55;;;;;;;11.75;2.70;;;;;;;;;;5015021;28;20046;-84
2021/10/27 13:00:33;;;;;;;6.57;2.47;;;;;;;;;;5020828;28;20042;-87
2021/10/27 13:03:24;;;;;;;10.45;2.40;;;;;;;;;;5006655;28;20053;-87
2021/10/27 13:05:59;;;;;;;7.68;2.78;;;;;;;;;;5007480;28;20098;-86
2021/10/27 13:30:21;;;;;;;11.00;3.40;;;;;;;;;;4997331;28;20049;-85
2021/10/27 13:32:55;;;;;;;8.45;3.05;;;;;;;;;;4988131;28;20084;-84
2021/10/27 13:35:22;;;;;;;9.88;3.33;;;;;;;;;;4990753;28;20046;-82
2021/10/27 13:37:49;;;;;;;7.88;2.83;;;;;;;;;;4995522;28;20041;-84
2021/10/27 13:40:15;;;;;;;10.35;3.58;;;;;;;;;;5010776;28;20050;-84
2021/10/27 13:42:57;;;;;;;8.15;2.78;;;;;;;;;;4979794;28;20037;-83
2021/10/27 14:09:26;;;;;;;8.75;3.10;;;;;;;;;;5007279;28;20057;-84
2021/10/27 14:12:05;;;;;;;10.07;3.20;;;;;;;;;;4994262;28;20049;-85
2021/10/27 14:14:40;;;;;;;10.48;3.28;;;;;;;;;;5008251;28;20045;-83
2021/10/27 14:47:21;;;;;;;12.35;3.13;;;;;;;;;;5013540;28;20049;-80
2021/10/27 15:20:13;;;;;;;11.93;3.08;;;;;;;;;;5009293;28;20061;-82
2021/10/27 15:30:45;;;;;;;8.57;3.28;;;;;;;;;;5006639;28;20211;-79
2021/10/27 15:41:16;;;;;;;9.80;3.83;;;;;;;;;;5009895;28;20104;-81
2021/10/27 15:43:46;;;;;;;5.97;2.97;;;;;;;;;;5012053;28;20037;-83
2021/10/27 15:51:52;;;;;;;9.05;4.05;;;;;;;;;;4990499;28;20046;-84
2021/10/27 15:54:19;;;;;;;10.32;3.47;;;;;;;;;;5011644;28;20049;-84
2021/10/27 15:56:45;;;;;;;8.63;3.60;;;;;;;;;;4995325;28;20050;-86
2021/10/27 15:59:11;;;;;;;8.82;3.65;;;;;;;;;;5007516;28;20129;-87
2021/10/27 16:01:37;;;;;;;11.18;4.03;;;;;;;;;;5003377;28;20529;-87
2021/10/27 16:04:04;;;;;;;9.18;3.90;;;;;;;;;;4995883;28;20054;-84
2021/10/27 16:06:33;;;;;;;9.25;3.75;;;;;;;;;;5021409;28;20057;-83
2021/10/27 16:09:01;;;;;;;9.30;4.30;;;;;;;;;;4995578;28;20133;-84
2021/10/27 16:11:28;;;;;;;8.27;3.72;;;;;;;;;;4981823;28;20499;-83
2021/10/27 16:13:54;;;;;;;7.25;3.95;;;;;;;;;;4977852;28;20092;-81
2021/10/27 16:16:20;;;;;;;10.23;4.60;;;;;;;;;;5009143;28;20128;-82
2021/10/27 16:18:46;;;;;;;8.25;3.33;;;;;;;;;;4980271;28;20494;-81
2021/10/27 16:21:12;;;;;;;7.75;3.50;;;;;;;;;;4996659;28;20092;-82
2021/10/27 16:23:38;;;;;;;10.75;4.35;;;;;;;;;;5002130;28;20485;-82
2021/10/27 16:26:05;;;;;;;8.68;3.38;;;;;;;;;;5005787;28;20541;-83
2021/10/27 16:28:31;;;;;;;12.75;4.75;;;;;;;;;;5009261;28;20045;-82
2021/10/27 16:30:57;;;;;;;9.57;3.70;;;;;;;;;;4991381;28;20207;-79
2021/10/27 16:33:24;;;;;;;11.05;3.88;;;;;;;;;;5005310;28;20507;-81
2021/10/27 16:35:51;;;;;;;11.05;3.42;;;;;;;;;;5003791;28;20626;-80
2021/10/27 16:38:18;;;;;;;8.15;3.42;;;;;;;;;;4972160;28;20042;-82
2021/10/27 16:40:45;;;;;;;12.32;4.70;;;;;;;;;;4973556;28;20038;-81
2021/10/27 16:43:11;;;;;;;10.00;3.78;;;;;;;;;;4986281;28;20046;-82
2021/10/27 16:45:37;;;;;;;8.55;3.67;;;;;;;;;;5008661;28;20052;-83
2021/10/27 16:48:03;;;;;;;9.70;4.05;;;;;;;;;;5008967;28;20054;-78
2021/10/27 16:50:31;;;;;;;11.07;4.45;;;;;;;;;;4988803;28;20469;-82
2021/10/27 16:52:58;;;;;;;10.45;3.50;;;;;;;;;;5000438;28;20133;-84
2021/10/27 16:55:24;;;;;;;10.13;4.00;;;;;;;;;;5003397;28;20108;-84
2021/10/27 16:57:52;;;;;;;8.75;4.28;;;;;;;;;;4990901;28;20061;-87
2021/10/27 17:00:19;;;;;;;11.00;4.55;;;;;;;;;;4985231;28;20050;-82
2021/10/27 17:02:45;;;;;;;12.98;4.47;;;;;;;;;;5000888;28;20057;-83
2021/10/27 17:05:12;;;;;;;9.00;4.07;;;;;;;;;;4990263;28;20050;-86
2021/10/27 17:07:39;;;;;;;9.60;4.80;;;;;;;;;;5011832;28;20054;-86
2021/10/27 17:10:06;;;;;;;8.10;4.07;;;;;;;;;;5006130;28;20062;-85
2021/10/27 17:12:33;;;;;;;9.02;5.03;;;;;;;;;;5005897;28;20061;-85
2021/10/27 17:15:00;;;;;;;9.82;5.15;;;;;;;;;;5009389;28;20431;-86
2021/10/27 17:17:26;;;;;;;8.45;4.70;;;;;;;;;;5004292;28;20069;-84
2021/10/27 17:19:52;;;;;;;11.27;5.43;;;;;;;;;;4990487;28;20065;-83
2021/10/27 17:22:23;;;;;;;11.45;5.80;;;;;;;;;;5008057;28;20051;-82
2021/10/27 17:24:49;;;;;;;10.05;5.28;;;;;;;;;;5008522;28;20049;-84
2021/10/27 17:27:15;;;;;;;10.00;5.32;;;;;;;;;;5003689;28;20490;-84
2021/10/27 17:29:41;;;;;;;10.50;5.30;;;;;;;;;;4974762;28;20045;-82
2021/10/27 17:32:07;;;;;;;11.57;5.40;;;;;;;;;;5004187;28;20215;-87
2021/10/27 17:34:34;;;;;;;11.80;6.25;;;;;;;;;;5009331;28;20046;-84
2021/10/27 17:37:01;;;;;;;11.75;6.00;;;;;;;;;;4990419;28;20531;-83
2021/10/27 17:39:27;;;;;;;9.23;6.00;;;;;;;;;;5009913;28;20038;-85
2021/10/27 17:41:56;;;;;;;10.05;6.70;;;;;;;;;;5008638;28;20137;-86
2021/10/27 17:44:23;;;;;;;12.23;6.95;;;;;;;;;;5001477;28;20125;-82
2021/10/27 17:46:54;;;;;;;12.38;7.07;;;;;;;;;;5006396;28;20440;-79
2021/10/27 17:49:42;;;;;;;9.82;7.10;;;;;;;;;;5001995;28;20378;-81
2021/10/27 17:52:14;;;;;;;19.15;8.00;;;;;;;;;;5011583;28;20058;-81
2021/10/27 17:58:00;;;;;;;10.23;7.25;;;;;;;;;;5002801;28;20053;-80
2021/10/27 18:00:26;;;;;;;10.07;7.55;;;;;;;;;;5007699;28;20053;-83
2021/10/27 18:02:52;;;;;;;13.43;8.63;;;;;;;;;;5007553;28;20514;-82
2021/10/27 18:05:18;;;;;;;14.60;8.52;;;;;;;;;;5009610;28;20045;-83
2021/10/27 18:07:45;;;;;;;13.88;8.85;;;;;;;;;;5016062;28;20081;-85
2021/10/27 18:10:14;;;;;;;12.48;8.63;;;;;;;;;;4985722;28;20397;-84
2021/10/27 18:12:40;;;;;;;12.50;8.25;;;;;;;;;;5009989;28;20104;-80
2021/10/27 18:15:08;;;;;;;13.13;8.25;;;;;;;;;;4982161;28;20138;-77
2021/10/27 18:17:37;;;;;;;14.32;9.10;;;;;;;;;;5009360;28;20050;-83
2021/10/27 18:20:08;;;;;;;12.90;8.57;;;;;;;;;;4995321;28;20085;-84
2021/10/27 18:25:34;;;;;;;15.00;9.48;;;;;;;;;;5029951;28;20048;-83
2021/10/27 18:36:20;;;;;;;15.52;11.25;;;;;;;;;;5012014;28;20050;-80
2021/10/27 18:41:19;;;;;;;14.13;11.90;;;;;;;;;;5013890;28;20049;-86
2021/10/27 18:43:47;;;;;;;18.77;12.27;;;;;;;;;;4994131;28;20214;-82
2021/10/27 18:46:13;;;;;;;14.02;12.23;;;;;;;;;;4999644;28;20103;-83
2021/10/27 18:48:45;;;;;;;20.02;12.55;;;;;;;;;;5008723;28;20056;-82
2021/10/27 18:51:20;;;;;;;20.20;12.05;;;;;;;;;;5046131;28;20132;-82
2021/10/27 18:54:03;;;;;;;14.57;12.18;;;;;;;;;;5007451;28;20054;-83
2021/10/27 19:12:23;;;;;;;18.60;13.68;;;;;;;;;;4996067;28;20064;-80
2021/10/27 19:17:26;;;;;;;24.90;15.15;;;;;;;;;;5005148;28;20485;-82
2021/10/27 19:19:52;;;;;;;20.15;14.50;;;;;;;;;;5000858;28;20050;-82
2021/10/27 19:22:19;;;;;;;21.90;15.02;;;;;;;;;;4976104;28;20115;-82
2021/10/27 19:24:55;;;;;;;18.63;14.43;;;;;;;;;;5009736;28;20054;-82
2021/10/27 19:27:27;;;;;;;21.98;15.10;;;;;;;;;;4999654;28;20054;-81
2021/10/27 19:30:14;;;;;;;24.88;15.38;;;;;;;;;;4994489;28;20631;-80
2021/10/27 19:35:22;;;;;;;26.95;16.65;;;;;;;;;;5009732;28;20057;-82
2021/10/27 20:19:05;;;;;;;32.53;22.23;;;;;;;;;;5000742;28;20109;-83
2021/10/27 20:51:15;;;;;;;39.35;24.52;;;;;;;;;;5008105;28;20049;-81
2021/10/27 20:53:41;;;;;;;37.35;24.27;;;;;;;;;;4981467;28;20073;-83
2021/10/27 20:56:13;;;;;;;39.67;25.88;;;;;;;;;;4990570;28;20050;-79